West Ferrisburgh, Vermont
Current Conditions -  °F | °C
As of 5:35 AM on Thursday 18 Dec 2014 (Local Time) from K6B0 Reporting Station
Light Snow Light Snow  
Wind Chill: 33°   Ceiling: 400
Heat Index: 33°   Visibility: 2.5mi
Dew Point: 33°   Wind: 0mph
Humidity: 100%   Direction: NA
Pressure: 29.77"   Gusts: NA
Location:  44.0804°N, 73.3324°W
Report Text: K6B0 181035Z AUTO 00000KT 2 1/2SM -SN OVC004 00/00 A2977 RMK AO2 T00030003
Loading
Personal Weather Stations






























Interactive Weather Map New forecast layout! Learn more

10-Day Weather Forecast

Advertisements
Track Severe Weather on mobile